Terminal Aerodrome Forecast
Issued by NWS

Home | Current Version | Previous Version | Text Only | Print | Product List | Glossary On
Versions: 1 2 3 4 5 6 7 8 9 10 11 12 13 14 15 16 17 18 19 20 21 22 23 24 25 26 27 28 29
000
FTUS43 KDVN 222200 AAB
TAFCID
TAF AMD
KCID 222233Z 2223/2318 19006KT 4SM BR OVC009
     FM230000 18009KT 2SM BR OVC004
     FM230500 17012KT 1SM BR VCSH OVC005
     FM231200 16008KT 3/4SM -DZ BR OVC003=

USA.gov is the U.S. government's official web portal to all federal, state and local government web resources and services.